Licenciado Benito Juarez International Airport
MMMX : now visible

Airfield :











YOU CAN JOIN US ON...

 
LOGIN :

Register | Disclaimer

   EN    FR    IT 

 









Legend :    VFR   Marginal VFR   IFR   Intensive IFR   Very Intensive IFR
Visi :
Ceiling :
>= 8 km
>= 3000ft
5 to 8 km
1000 to 3000 ft
1500m to 5 km
500 to 1000 ft
800 to 1500m
200 to 500 ft
< 800m
< 200 ft
Symbols :   Thunderstorms  Fog  Heavy snow  Heavy precipitations  Wind > 20 kt






- Airport Elevation : 7316 ft
- IATA code : MEX


MMMX - Licenciado Benito Juarez International

CURRENT METAR :
  • 232247Z 10008KT 6SM SCT030 24/07 A3038 NOSIG RMK 8/200 HZY ISOL TCU

EXPIRED METARs :
  • 232144Z 09004KT 6SM SCT030 23/07 A3040 NOSIG RMK 8/200 HZY ISOL TCU
  • 232142Z 07005KT 6SM SCT030 23/07 A3040 NOSIG RMK 8/200 HZY ISOL TCU
  • 232102Z 05006KT 6SM SCT030 25/08 A3041 NOSIG RMK 8/200 HZY ISOL TCU

TAF TAF MMMX
Valid from the 23 at 18:00 until the 25 at 00:00 UTC


231627Z 2318/2424 04008KT 3SM HZ FU SCT025 TX25/2321Z TN12/2412Z
BECMG 2321/2322 5SM HZ FU SCT025CB
TEMPO 2323/2403 5SM -TSRA BKN025CB BKN100
FM240300 04005KT P6SM SCT025 BKN100 BKN250
BECMG 2410/2411 6SM HZ SCT025
FM241500 04005KT 3SM HZ FU SCT025
BECMG 2421/2422 BKN025CB
MMFR FIR / North America



MET'MAP, your aeronautical weather chart ! - Copyright ORBIFLY December 2007 - Disclaimer

ORBIFLY MET'MAP TEAM :

Programming & Development : Alexandra Zaïnal
Concept & original design : Baudouin d'Aumeries
Assistance for programming : Marc-Olivier Méhu
Technical & hardware support : Manuel Goepfert

Contact : metmap@orbifly.com




SOURCES & CREDITS :

   NOAA       Earth
Advisory